createdAt,value
2022-09-22T00:01:18.743Z,93.38
2022-09-22T00:03:48.974Z,93.96
2022-09-22T00:06:22.013Z,93.19
2022-09-22T00:08:51.471Z,93.42
2022-09-22T00:11:23.820Z,92.84
2022-09-22T00:13:59.005Z,93.62
2022-09-22T00:16:28.800Z,93.59
2022-09-22T00:18:55.781Z,93.71
2022-09-22T00:21:24.695Z,93.79
2022-09-22T00:23:52.246Z,93.17
2022-09-22T00:26:21.657Z,93.46
2022-09-22T00:28:49.539Z,92.95
2022-09-22T00:31:20.277Z,94.35
2022-09-22T00:33:48.080Z,95.16
2022-09-22T00:36:16.063Z,96.42
2022-09-22T00:38:43.371Z,96.27
2022-09-22T00:41:18.846Z,95.86
2022-09-22T00:43:48.715Z,96.97
2022-09-22T00:46:23.002Z,95.77
2022-09-22T00:49:00.026Z,95.81
2022-09-22T00:51:32.661Z,95.92
2022-09-22T00:54:00.961Z,95.86
2022-09-22T00:56:37.473Z,96.03
2022-09-22T00:59:10.006Z,96.24
2022-09-22T01:01:36.891Z,96.32
2022-09-22T01:04:04.456Z,95.42
2022-09-22T01:06:31.186Z,95.54
2022-09-22T01:08:59.588Z,96.24
2022-09-22T01:11:27.956Z,94.92
2022-09-22T01:15:05.520Z,94.75
2022-09-22T01:18:13.187Z,94.92
2022-09-22T01:55:52.540Z,94.60
2022-09-22T01:58:28.860Z,94.80
2022-09-22T02:01:01.032Z,95.37
2022-09-22T02:03:41.298Z,95.43
2022-09-22T02:06:19.544Z,95.86
2022-09-22T02:09:20.693Z,95.77
2022-09-22T02:11:48.965Z,95.39
2022-09-22T02:14:16.344Z,96.10
2022-09-22T02:16:43.029Z,94.98
2022-09-22T02:19:16.297Z,94.97
2022-09-22T02:21:45.633Z,95.48
2022-09-22T02:24:33.544Z,95.89
2022-09-22T02:27:04.324Z,95.61
2022-09-22T02:29:34.292Z,95.63
2022-09-22T02:32:05.594Z,96.62
2022-09-22T02:34:32.499Z,96.33
2022-09-22T02:37:18.562Z,97.65
2022-09-22T02:40:22.952Z,97.12
2022-09-22T02:43:22.742Z,96.24
2022-09-22T02:46:07.912Z,96.42
2022-09-22T02:48:45.585Z,95.80
2022-09-22T02:51:14.177Z,96.28
2022-09-22T02:53:40.748Z,96.15
2022-09-22T02:56:07.499Z,96.15
2022-09-22T02:58:34.095Z,96.62
2022-09-22T03:01:00.896Z,97.00
2022-09-22T03:03:27.628Z,96.94
2022-09-22T03:05:54.201Z,97.72
2022-09-22T03:08:20.901Z,97.94
2022-09-22T03:10:47.435Z,96.84
2022-09-22T03:13:16.821Z,96.84
2022-09-22T03:15:45.519Z,96.07
2022-09-22T03:18:12.262Z,96.01
2022-09-22T03:20:38.857Z,95.35
2022-09-22T03:23:05.703Z,94.82
2022-09-22T03:25:32.816Z,94.35
2022-09-22T03:27:59.660Z,94.93
2022-09-22T03:30:26.249Z,95.43
2022-09-22T03:32:52.741Z,94.70
2022-09-22T03:35:19.454Z,94.83
2022-09-22T03:37:46.652Z,95.21
2022-09-22T03:40:13.351Z,95.42
2022-09-22T03:42:40.068Z,96.42
2022-09-22T03:45:07.270Z,95.24
2022-09-22T03:47:33.882Z,95.07
2022-09-22T03:50:00.656Z,95.84
2022-09-22T03:52:27.428Z,97.36
2022-09-22T03:54:54.496Z,96.71
2022-09-22T03:57:21.348Z,96.25
2022-09-22T03:59:47.990Z,96.46
2022-09-22T04:02:14.769Z,95.73
2022-09-22T04:04:41.404Z,95.61
2022-09-22T04:07:07.986Z,95.36
2022-09-22T04:09:34.826Z,95.25
2022-09-22T04:12:02.013Z,95.02
2022-09-22T04:14:28.702Z,94.57
2022-09-22T04:16:55.558Z,95.46
2022-09-22T04:19:22.859Z,95.11
2022-09-22T04:21:54.674Z,94.60
2022-09-22T04:24:24.627Z,94.60
2022-09-22T04:27:15.567Z,95.45
2022-09-22T04:29:38.563Z,94.39
2022-09-22T04:32:05.532Z,93.52
2022-09-22T04:34:32.128Z,94.16
2022-09-22T04:36:58.928Z,94.65
2022-09-22T04:39:25.598Z,93.82
2022-09-22T04:41:52.393Z,93.38
2022-09-22T04:44:19.001Z,93.81
2022-09-22T04:46:46.332Z,94.12
2022-09-22T04:49:16.477Z,93.41
2022-09-22T04:51:43.098Z,93.46
2022-09-22T04:54:09.877Z,93.90
2022-09-22T04:56:36.468Z,94.15
2022-09-22T04:59:03.236Z,93.62
2022-09-22T05:01:30.128Z,94.22
2022-09-22T05:03:56.733Z,94.16
2022-09-22T05:06:23.496Z,93.95
2022-09-22T05:08:50.046Z,94.29
2022-09-22T05:11:16.636Z,94.38
2022-09-22T05:13:43.369Z,94.29
2022-09-22T05:16:09.964Z,93.82
2022-09-22T05:18:37.007Z,94.01
2022-09-22T05:21:03.639Z,93.30
2022-09-22T05:23:31.757Z,93.53
2022-09-22T05:25:58.715Z,93.47
2022-09-22T05:28:25.250Z,92.64
2022-09-22T05:30:52.232Z,93.14
2022-09-22T05:33:18.920Z,92.97
2022-09-22T05:35:45.914Z,93.23
2022-09-22T05:38:12.678Z,93.09
2022-09-22T05:40:39.286Z,92.96
2022-09-22T05:43:06.118Z,93.71
2022-09-22T05:45:32.759Z,94.22
2022-09-22T05:47:59.421Z,93.31
2022-09-22T05:50:26.181Z,93.56
2022-09-22T05:53:02.366Z,92.98
2022-09-22T05:55:29.201Z,92.64
2022-09-22T05:58:00.062Z,91.93
2022-09-22T06:00:28.224Z,93.00
2022-09-22T06:02:55.062Z,92.95
2022-09-22T06:05:21.634Z,93.11
2022-09-22T06:07:58.158Z,93.09
2022-09-22T06:10:24.713Z,92.12
2022-09-22T06:12:51.501Z,92.38
2022-09-22T06:15:18.099Z,91.46
2022-09-22T06:17:44.634Z,92.37
2022-09-22T06:20:11.397Z,93.15
2022-09-22T06:22:37.965Z,93.54
2022-09-22T06:25:05.460Z,93.34
2022-09-22T06:27:31.994Z,92.93
2022-09-22T06:29:58.843Z,93.18
2022-09-22T06:32:25.612Z,92.68
2022-09-22T06:34:52.156Z,93.46
2022-09-22T06:37:20.302Z,93.72
2022-09-22T06:39:46.871Z,93.63
2022-09-22T06:42:17.045Z,94.04
2022-09-22T06:44:45.061Z,93.73
2022-09-22T06:47:12.381Z,94.08
2022-09-22T06:49:39.147Z,94.03
2022-09-22T06:52:06.033Z,94.72
2022-09-22T06:54:32.625Z,94.20
2022-09-22T06:56:59.461Z,94.70
2022-09-22T06:59:26.017Z,93.62
2022-09-22T07:01:52.882Z,93.67
2022-09-22T07:04:23.265Z,92.56
2022-09-22T07:06:50.466Z,93.02
2022-09-22T07:09:17.235Z,93.17
2022-09-22T07:11:43.831Z,94.48
2022-09-22T07:14:12.669Z,94.08
2022-09-22T07:16:40.827Z,92.77
2022-09-22T07:19:08.122Z,92.44
2022-09-22T07:21:37.778Z,92.51
2022-09-22T07:24:05.521Z,92.24
2022-09-22T07:26:38.198Z,91.41
2022-09-22T07:29:11.559Z,91.10
2022-09-22T07:31:39.247Z,89.96
2022-09-22T07:34:05.982Z,88.07
2022-09-22T07:36:34.260Z,87.27
2022-09-22T07:39:11.010Z,86.72
2022-09-22T07:41:42.966Z,85.65
2022-09-22T07:44:30.183Z,85.87
2022-09-22T07:46:57.070Z,86.04
2022-09-22T07:49:23.877Z,84.92
2022-09-22T07:51:54.840Z,84.88
2022-09-22T07:54:22.734Z,84.59
2022-09-22T07:56:51.975Z,82.33
2022-09-22T07:59:18.620Z,81.45
2022-09-22T08:01:47.565Z,82.08
2022-09-22T08:04:16.822Z,81.29
2022-09-22T08:06:44.828Z,82.74
2022-09-22T08:09:12.407Z,82.75
2022-09-22T08:11:39.478Z,82.51
2022-09-22T08:14:08.612Z,82.10
2022-09-22T08:16:37.318Z,81.00
2022-09-22T08:19:10.721Z,81.61
2022-09-22T08:21:47.752Z,81.73
2022-09-22T08:24:16.714Z,82.67
2022-09-22T08:26:48.102Z,82.20
2022-09-22T08:29:15.095Z,82.98
2022-09-22T08:31:42.505Z,82.01
2022-09-22T08:34:09.584Z,81.88
2022-09-22T08:36:37.335Z,82.06
2022-09-22T08:39:05.146Z,81.37
2022-09-22T08:41:46.886Z,78.83
2022-09-22T08:44:23.970Z,79.11
2022-09-22T08:46:53.786Z,79.69
2022-09-22T08:50:01.791Z,80.20
2022-09-22T08:52:55.735Z,78.66
2022-09-22T08:55:24.720Z,79.82
2022-09-22T08:58:06.540Z,79.84
2022-09-22T09:00:42.786Z,77.96
2022-09-22T09:03:46.882Z,79.35
2022-09-22T09:06:40.044Z,79.01
2022-09-22T09:09:54.304Z,78.19
2022-09-22T09:12:39.787Z,77.37
2022-09-22T09:15:27.484Z,78.72
2022-09-22T09:17:59.193Z,78.51
2022-09-22T09:20:46.717Z,77.83
2022-09-22T09:23:18.152Z,78.20
2022-09-22T09:25:49.629Z,76.55
2022-09-22T09:28:24.176Z,77.73
2022-09-22T09:30:59.137Z,77.25
2022-09-22T09:33:37.301Z,75.97
2022-09-22T09:36:04.456Z,75.90
2022-09-22T09:38:42.052Z,75.52
2022-09-22T09:41:19.488Z,75.45
2022-09-22T09:43:46.237Z,74.88
2022-09-22T09:47:05.148Z,74.79
2022-09-22T09:49:32.337Z,74.47
2022-09-22T09:52:01.936Z,76.26
2022-09-22T09:54:28.741Z,75.89
2022-09-22T09:57:27.588Z,73.80
2022-09-22T10:00:31.967Z,75.85
2022-09-22T10:03:32.836Z,74.76
2022-09-22T10:06:02.923Z,73.48
2022-09-22T10:08:36.699Z,73.05
2022-09-22T10:11:04.606Z,70.88
2022-09-22T10:13:36.562Z,72.75
2022-09-22T10:16:31.677Z,70.78
2022-09-22T10:19:20.016Z,71.52
2022-09-22T10:21:46.655Z,72.54
2022-09-22T10:24:29.652Z,69.74
2022-09-22T10:26:56.389Z,69.44
2022-09-22T10:29:24.183Z,70.85
2022-09-22T10:32:17.151Z,69.45
2022-09-22T10:34:49.111Z,69.27
2022-09-22T10:37:20.618Z,69.59
2022-09-22T10:39:49.851Z,69.29
2022-09-22T10:42:37.893Z,70.45
2022-09-22T10:45:13.118Z,70.94
2022-09-22T10:48:00.316Z,68.87
2022-09-22T10:50:58.926Z,68.93
2022-09-22T10:54:06.626Z,69.81
2022-09-22T10:56:43.896Z,67.90
2022-09-22T11:00:12.301Z,67.15
2022-09-22T11:03:23.301Z,66.49
2022-09-22T11:06:56.167Z,63.14
2022-09-22T11:10:09.566Z,63.35
2022-09-22T11:12:59.178Z,61.94
2022-09-22T11:16:02.370Z,62.87
2022-09-22T11:21:50.813Z,63.92
2022-09-22T11:24:37.711Z,62.48
2022-09-22T11:27:09.167Z,60.89
2022-09-22T11:30:00.294Z,62.12
2022-09-22T11:32:57.617Z,63.67
2022-09-22T11:39:18.093Z,61.44
2022-09-22T11:41:55.277Z,61.30
2022-09-22T11:44:36.361Z,65.78
2022-09-22T11:48:04.463Z,63.31
2022-09-22T11:50:59.122Z,63.31
2022-09-22T11:53:55.455Z,62.79
2022-09-22T11:57:06.747Z,62.94
2022-09-22T12:00:13.211Z,63.45
2022-09-22T12:02:46.590Z,64.13
2022-09-22T12:05:27.138Z,64.44
2022-09-22T12:08:02.841Z,64.03
2022-09-22T12:10:35.549Z,64.62
2022-09-22T12:13:05.217Z,63.15
2022-09-22T12:15:42.911Z,62.87
2022-09-22T12:18:29.486Z,65.54
2022-09-22T12:21:35.631Z,65.54
2022-09-22T12:24:07.734Z,61.71
2022-09-22T12:26:37.318Z,59.64
2022-09-22T12:29:27.538Z,61.79
2022-09-22T12:31:56.936Z,58.94
2022-09-22T12:34:32.139Z,59.57
2022-09-22T12:37:09.890Z,62.75
2022-09-22T12:39:42.002Z,62.18
2022-09-22T12:42:21.977Z,61.76
2022-09-22T12:45:14.971Z,60.37
2022-09-22T12:47:47.085Z,61.52
2022-09-22T12:50:38.047Z,59.04
2022-09-22T12:53:24.061Z,62.53
2022-09-22T12:55:52.301Z,57.91
2022-09-22T12:58:46.224Z,56.79
2022-09-22T13:01:33.670Z,55.33
2022-09-22T13:04:26.831Z,56.78
2022-09-22T13:06:55.766Z,56.74
2022-09-22T13:09:26.000Z,54.35
2022-09-22T13:12:22.889Z,54.47
2022-09-22T13:15:19.764Z,57.14
2022-09-22T13:17:49.485Z,57.54
2022-09-22T13:20:22.622Z,57.45
2022-09-22T13:22:51.123Z,57.96
2022-09-22T13:25:24.942Z,58.77
2022-09-22T13:28:20.140Z,57.86
2022-09-22T13:30:58.864Z,58.94
2022-09-22T13:33:28.611Z,59.97
2022-09-22T13:36:20.938Z,60.88
2022-09-22T13:38:57.759Z,60.43
2022-09-22T13:41:27.561Z,60.90
2022-09-22T13:43:58.902Z,60.03
2022-09-22T13:46:35.588Z,59.99
2022-09-22T13:49:06.214Z,59.26
2022-09-22T13:51:32.974Z,60.30
2022-09-22T13:53:59.925Z,62.75
2022-09-22T13:56:27.193Z,60.39
2022-09-22T13:58:59.445Z,61.62
2022-09-22T14:01:28.190Z,63.43
2022-09-22T14:03:55.918Z,63.68
2022-09-22T14:06:26.322Z,65.03
2022-09-22T14:08:53.932Z,64.31
2022-09-22T14:11:27.056Z,64.84
2022-09-22T14:13:59.222Z,64.92
2022-09-22T14:16:34.185Z,62.72
2022-09-22T14:19:33.158Z,63.78
2022-09-22T14:22:05.267Z,63.45
2022-09-22T14:24:34.770Z,63.21
2022-09-22T14:27:04.516Z,63.04
2022-09-22T14:29:34.086Z,64.50
2022-09-22T14:32:12.647Z,62.94
2022-09-22T14:34:40.795Z,62.68
2022-09-22T14:37:14.650Z,64.21
2022-09-22T14:39:43.891Z,63.37
2022-09-22T14:42:22.883Z,61.44
2022-09-22T14:44:51.701Z,63.22
2022-09-22T14:47:28.037Z,64.83
2022-09-22T14:50:31.198Z,64.87
2022-09-22T14:53:05.092Z,61.46
2022-09-22T14:55:37.651Z,62.16
2022-09-22T14:58:25.743Z,64.21
2022-09-22T15:01:35.192Z,65.38
2022-09-22T15:04:08.130Z,63.70
2022-09-22T15:06:37.158Z,62.93
2022-09-22T15:09:05.196Z,64.79
2022-09-22T15:12:02.883Z,65.85
2022-09-22T15:14:59.602Z,65.23
2022-09-22T15:18:01.038Z,64.64
2022-09-22T15:20:46.596Z,65.82
2022-09-22T15:23:23.058Z,61.00
2022-09-22T15:25:51.077Z,63.20
2022-09-22T15:28:23.803Z,64.36
2022-09-22T15:30:52.446Z,64.56
2022-09-22T15:33:20.722Z,66.45
2022-09-22T15:36:08.723Z,66.81
2022-09-22T15:38:37.970Z,63.49
2022-09-22T15:41:04.823Z,62.89
2022-09-22T15:43:31.919Z,62.61
2022-09-22T15:46:04.568Z,63.89
2022-09-22T15:48:39.635Z,65.59
2022-09-22T15:51:09.711Z,66.45
2022-09-22T15:53:37.762Z,66.38
2022-09-22T15:56:11.401Z,65.54
2022-09-22T15:58:41.393Z,65.47
2022-09-22T16:01:08.159Z,66.54
2022-09-22T16:03:41.092Z,66.12
2022-09-22T16:06:11.988Z,67.05
2022-09-22T16:08:44.914Z,67.91
2022-09-22T16:11:14.035Z,69.28
2022-09-22T16:13:41.255Z,69.79
2022-09-22T16:16:09.531Z,70.27
2022-09-22T16:18:39.479Z,70.22
2022-09-22T16:21:07.807Z,69.74
2022-09-22T16:23:34.419Z,70.64
2022-09-22T16:26:01.075Z,70.77
2022-09-22T16:28:27.910Z,71.16
2022-09-22T16:30:54.486Z,71.47
2022-09-22T16:33:21.684Z,71.60
2022-09-22T16:35:49.236Z,71.10
2022-09-22T16:38:15.869Z,71.27
2022-09-22T16:40:42.758Z,71.74
2022-09-22T16:43:10.853Z,71.41
2022-09-22T16:45:56.231Z,71.16
2022-09-22T16:48:23.234Z,71.91
2022-09-22T16:50:50.182Z,72.37
2022-09-22T16:53:16.787Z,71.63
2022-09-22T16:55:49.251Z,72.30
2022-09-22T16:58:15.725Z,72.41
2022-09-22T17:00:43.569Z,72.43
2022-09-22T17:03:10.401Z,73.82
2022-09-22T17:05:37.994Z,72.64
2022-09-22T17:08:06.945Z,72.67
2022-09-22T17:10:35.566Z,73.18
2022-09-22T17:13:04.818Z,74.39
2022-09-22T17:15:36.023Z,75.00
2022-09-22T17:18:04.011Z,75.33
2022-09-22T17:20:30.656Z,75.96
2022-09-22T17:22:57.822Z,76.29
2022-09-22T17:25:27.903Z,77.53
2022-09-22T17:27:54.740Z,77.80
2022-09-22T17:30:21.502Z,77.61
2022-09-22T17:32:48.451Z,78.34
2022-09-22T17:35:15.157Z,78.98
2022-09-22T17:37:41.875Z,79.55
2022-09-22T17:40:10.497Z,79.48
2022-09-22T17:42:37.675Z,79.97
2022-09-22T17:45:07.351Z,80.61
2022-09-22T17:47:52.314Z,80.77
2022-09-22T17:50:37.690Z,81.46
2022-09-22T17:53:30.123Z,81.55
2022-09-22T17:55:56.718Z,81.89
2022-09-22T17:58:23.451Z,82.46
2022-09-22T18:00:50.819Z,82.25
2022-09-22T18:03:18.201Z,82.85
2022-09-22T18:05:51.918Z,83.04
2022-09-22T18:08:19.355Z,83.35
2022-09-22T18:10:46.322Z,82.99
2022-09-22T18:13:12.952Z,84.71
2022-09-22T18:15:42.528Z,84.25
2022-09-22T18:18:09.351Z,83.81
2022-09-22T18:20:36.140Z,83.87
2022-09-22T18:23:02.740Z,85.35
2022-09-22T18:25:31.238Z,85.03
2022-09-22T18:27:58.101Z,85.10
2022-09-22T18:30:25.507Z,85.55
2022-09-22T18:32:52.314Z,85.81
2022-09-22T18:35:19.158Z,86.93
2022-09-22T18:37:45.826Z,87.14
2022-09-22T18:40:12.770Z,86.92
2022-09-22T18:42:39.770Z,86.79
2022-09-22T18:45:07.083Z,87.07
2022-09-22T18:47:39.622Z,86.53
2022-09-22T18:50:06.532Z,87.52
2022-09-22T18:52:33.605Z,87.79
2022-09-22T18:55:00.467Z,87.66
2022-09-22T18:57:28.710Z,87.72
2022-09-22T18:59:59.861Z,87.93
2022-09-22T19:02:26.770Z,89.16
2022-09-22T19:04:53.511Z,89.44
2022-09-22T19:07:41.969Z,89.33
2022-09-22T19:10:21.526Z,89.69
2022-09-22T19:12:49.576Z,89.67
2022-09-22T19:15:18.925Z,90.68
2022-09-22T19:17:47.679Z,91.62
2022-09-22T19:20:17.381Z,90.77
2022-09-22T19:22:44.812Z,89.67
2022-09-22T19:25:12.363Z,90.27
2022-09-22T19:27:39.984Z,90.28
2022-09-22T19:30:08.756Z,89.71
2022-09-22T19:32:35.504Z,89.76
2022-09-22T19:35:02.113Z,90.98
2022-09-22T19:37:29.343Z,90.91
2022-09-22T19:39:56.768Z,91.75
2022-09-22T19:42:23.826Z,91.96
2022-09-22T19:44:50.571Z,92.94
2022-09-22T19:47:17.197Z,92.00
2022-09-22T19:49:43.994Z,90.98
2022-09-22T19:52:12.305Z,91.96
2022-09-22T19:54:39.250Z,91.79
2022-09-22T19:57:06.018Z,92.86
2022-09-22T19:59:32.538Z,94.04
2022-09-22T20:01:59.770Z,94.29
2022-09-22T20:04:26.482Z,92.51
2022-09-22T20:06:53.296Z,92.44
2022-09-22T20:09:19.939Z,92.06
2022-09-22T20:11:49.129Z,92.43
2022-09-22T20:14:27.082Z,92.17
2022-09-22T20:17:05.819Z,92.37
2022-09-22T20:19:34.945Z,92.74
2022-09-22T20:22:25.293Z,92.26
2022-09-22T20:24:54.732Z,93.38
2022-09-22T20:27:29.801Z,93.38
2022-09-22T20:29:57.638Z,94.19
2022-09-22T20:32:26.652Z,93.67
2022-09-22T20:34:54.885Z,92.47
2022-09-22T20:37:22.732Z,92.60
2022-09-22T20:39:49.503Z,92.83
2022-09-22T20:42:16.237Z,93.14
2022-09-22T20:44:42.783Z,93.52
2022-09-22T20:47:14.306Z,94.51
2022-09-22T20:49:46.811Z,94.18
2022-09-22T20:52:15.835Z,93.38
2022-09-22T20:54:43.183Z,92.45
2022-09-22T20:57:11.232Z,93.45
2022-09-22T20:59:38.963Z,93.09
2022-09-22T21:02:07.174Z,94.11
2022-09-22T21:04:34.110Z,93.82
2022-09-22T21:07:00.719Z,93.77
2022-09-22T21:09:45.901Z,93.85
2022-09-22T21:12:13.485Z,95.23
2022-09-22T21:14:44.322Z,93.35
2022-09-22T21:17:11.078Z,93.78
2022-09-22T21:19:37.815Z,93.11
2022-09-22T21:22:04.850Z,92.49
2022-09-22T21:24:32.552Z,93.19
2022-09-22T21:26:59.696Z,94.58
2022-09-22T21:29:26.297Z,94.73
2022-09-22T21:31:53.081Z,95.04
2022-09-22T21:34:19.728Z,94.79
2022-09-22T21:36:46.607Z,95.17
2022-09-22T21:39:13.514Z,94.64
2022-09-22T21:41:40.103Z,93.85
2022-09-22T21:44:07.101Z,94.64
2022-09-22T21:46:40.779Z,94.54
2022-09-22T21:49:09.075Z,95.70
2022-09-22T21:51:41.283Z,95.19
2022-09-22T21:54:12.926Z,95.97
2022-09-22T21:56:39.751Z,95.46
2022-09-22T21:59:06.440Z,95.31
2022-09-22T22:01:36.837Z,95.00
2022-09-22T22:04:07.963Z,94.01
2022-09-22T22:06:40.829Z,94.32
2022-09-22T22:09:14.518Z,94.26
2022-09-22T22:11:49.409Z,94.93
2022-09-22T22:14:19.451Z,94.78
2022-09-22T22:16:48.270Z,95.30
2022-09-22T22:19:19.993Z,94.90
2022-09-22T22:21:47.969Z,94.81
2022-09-22T22:24:31.056Z,95.16
2022-09-22T22:27:01.322Z,95.57
2022-09-22T22:29:32.458Z,94.52
2022-09-22T22:31:59.293Z,94.15
2022-09-22T22:34:26.221Z,94.45
2022-09-22T22:36:54.037Z,94.27
2022-09-22T22:39:21.047Z,94.49
2022-09-22T22:41:51.708Z,96.30
2022-09-22T22:44:18.327Z,95.89
2022-09-22T22:46:45.649Z,95.24
2022-09-22T22:49:12.806Z,95.65
2022-09-22T22:51:40.207Z,94.62
2022-09-22T22:54:06.940Z,94.70
2022-09-22T22:56:33.506Z,95.07
2022-09-22T22:59:00.083Z,94.62
2022-09-22T23:01:28.899Z,94.03
2022-09-22T23:03:58.026Z,94.65
2022-09-22T23:06:35.817Z,95.06
2022-09-22T23:09:04.584Z,94.96
2022-09-22T23:11:35.398Z,94.15
2022-09-22T23:14:03.812Z,94.45
2022-09-22T23:16:36.465Z,95.02
2022-09-22T23:19:08.797Z,96.85
2022-09-22T23:21:36.426Z,98.00
2022-09-22T23:24:04.390Z,96.66
2022-09-22T23:26:32.022Z,95.90
2022-09-22T23:28:58.844Z,94.88
2022-09-22T23:31:26.054Z,95.36
2022-09-22T23:33:53.143Z,95.06
2022-09-22T23:36:23.075Z,95.06
2022-09-22T23:39:04.540Z,94.72
2022-09-22T23:41:33.267Z,94.82
2022-09-22T23:44:00.179Z,95.29
2022-09-22T23:46:26.899Z,95.22
2022-09-22T23:48:55.472Z,94.50
2022-09-22T23:51:22.408Z,93.74
2022-09-22T23:53:48.995Z,94.02
2022-09-22T23:56:15.682Z,94.93
2022-09-22T23:58:42.469Z,94.29
